Time;durP1;ratioP1;P1;durP2;ratioP2;P2;SDS_P1;SDS_P2;PMS_P1;PMS_P2;Temp;Humidity;BMP_temperature;BMP_pressure;BME280_temperature;BME280_humidity;BME280_pressure;Samples;Min_cycle;Max_cycle;Signal;HPM_P1;HPM_P2
2023/03/25 00:00:56;;;;;;;0.40;0.40;;;;;;;6.80;100.00;99085.31;5019218;28;20179;-86
2023/03/25 00:03:26;;;;;;;0.57;0.57;;;;;;;6.79;100.00;99096.19;5020051;28;20034;-85
2023/03/25 00:05:53;;;;;;;0.40;0.40;;;;;;;6.77;100.00;99101.75;5003330;28;20030;-84
2023/03/25 00:08:19;;;;;;;0.40;0.40;;;;;;;6.79;100.00;99109.56;5019156;28;20033;-86
2023/03/25 00:10:45;;;;;;;0.40;0.40;;;;;;;6.79;100.00;99115.72;5036617;28;20021;-85
2023/03/25 00:13:12;;;;;;;0.40;0.40;;;;;;;6.76;100.00;99121.44;5035611;28;20526;-85
2023/03/25 00:15:44;;;;;;;0.40;0.40;;;;;;;6.75;100.00;99118.97;5035910;28;20065;-84
2023/03/25 00:18:11;;;;;;;0.50;0.50;;;;;;;6.75;100.00;99118.97;5034935;28;20399;-85
2023/03/25 00:20:39;;;;;;;0.40;0.40;;;;;;;6.71;100.00;99120.38;5003155;28;20238;-86
2023/03/25 00:23:06;;;;;;;0.40;0.40;;;;;;;6.74;100.00;99133.34;5019048;28;20103;-82
2023/03/25 00:25:33;;;;;;;0.30;0.30;;;;;;;6.67;100.00;99132.44;5004282;28;20388;-84
2023/03/25 00:28:02;;;;;;;0.50;0.50;;;;;;;6.55;100.00;99132.94;5023505;28;20430;-85
2023/03/25 00:30:28;;;;;;;0.40;0.40;;;;;;;6.39;100.00;99123.34;5004778;28;20073;-84
2023/03/25 00:32:53;;;;;;;0.50;0.50;;;;;;;6.40;100.00;99132.16;5018766;28;20030;-85
2023/03/25 00:35:19;;;;;;;0.40;0.40;;;;;;;6.37;100.00;99136.03;5019226;28;20044;-85
2023/03/25 00:37:46;;;;;;;0.50;0.50;;;;;;;6.44;100.00;99132.63;5001727;28;20033;-86
2023/03/25 00:40:13;;;;;;;0.40;0.40;;;;;;;6.57;100.00;99154.13;5035325;28;20041;-85
2023/03/25 00:42:43;;;;;;;0.40;0.40;;;;;;;6.58;100.00;99161.94;5035286;28;20029;-87
2023/03/25 00:45:11;;;;;;;0.40;0.40;;;;;;;6.47;100.00;99157.09;5035199;28;20471;-84
2023/03/25 00:47:37;;;;;;;0.40;0.40;;;;;;;6.41;100.00;99165.88;5034783;28;20034;-86
2023/03/25 00:50:04;;;;;;;0.50;0.50;;;;;;;6.36;100.00;99173.63;5018670;28;20038;-85
2023/03/25 00:52:30;;;;;;;3.13;0.82;;;;;;;6.48;100.00;99179.28;5034058;28;20052;-85
2023/03/25 00:54:56;;;;;;;0.40;0.40;;;;;;;6.57;100.00;99189.66;5034765;28;20029;-84
2023/03/25 00:57:21;;;;;;;0.40;0.40;;;;;;;6.58;100.00;99201.16;5035024;28;20025;-83
2023/03/25 00:59:47;;;;;;;0.30;0.30;;;;;;;6.55;100.00;99209.56;5001860;28;20132;-83
2023/03/25 01:02:15;;;;;;;0.40;0.40;;;;;;;6.42;100.00;99191.53;5018444;28;20026;-85
2023/03/25 01:04:44;;;;;;;0.40;0.40;;;;;;;6.36;100.00;99198.47;5050301;28;20492;-85
2023/03/25 01:07:11;;;;;;;0.40;0.40;;;;;;;6.38;100.00;99211.63;5034942;28;20108;-85
2023/03/25 01:09:38;;;;;;;0.40;0.40;;;;;;;6.40;100.00;99206.91;5034132;28;20038;-86
2023/03/25 01:12:04;;;;;;;0.30;0.30;;;;;;;6.39;100.00;99219.44;5018401;28;20033;-85
2023/03/25 01:14:30;;;;;;;0.50;0.50;;;;;;;6.37;100.00;99229.47;5033744;28;20468;-82
2023/03/25 01:16:57;;;;;;;0.50;0.50;;;;;;;6.35;100.00;99228.84;5034292;28;20030;-85
2023/03/25 01:19:23;;;;;;;0.40;0.40;;;;;;;6.35;100.00;99230.66;5002141;28;20052;-84
2023/03/25 01:21:49;;;;;;;0.40;0.40;;;;;;;6.38;100.00;99225.81;5017799;28;20396;-85
2023/03/25 01:24:14;;;;;;;0.70;0.70;;;;;;;6.39;100.00;99223.97;5034501;28;20491;-83
2023/03/25 01:26:42;;;;;;;0.47;0.47;;;;;;;6.51;100.00;99242.97;5034259;28;20021;-85
2023/03/25 01:29:09;;;;;;;0.40;0.40;;;;;;;6.52;100.00;99226.78;5001550;28;20128;-86
2023/03/25 01:31:35;;;;;;;0.40;0.40;;;;;;;6.62;100.00;99241.72;5001821;28;20065;-86
2023/03/25 01:34:01;;;;;;;0.32;0.32;;;;;;;6.64;100.00;99240.47;5035262;28;20075;-88
2023/03/25 01:36:29;;;;;;;0.40;0.40;;;;;;;6.64;100.00;99245.00;5016694;28;20041;-84
2023/03/25 01:38:57;;;;;;;0.40;0.40;;;;;;;6.50;100.00;99228.81;5002076;28;20037;-85
2023/03/25 01:41:24;;;;;;;0.40;0.40;;;;;;;6.49;100.00;99245.03;5017818;28;20476;-83
2023/03/25 01:44:23;;;;;;;0.40;0.40;;;;;;;6.50;100.00;99252.84;5018006;28;20033;-85
2023/03/25 01:46:51;;;;;;;0.40;0.40;;;;;;;6.50;100.00;99260.03;5016004;28;20103;-86
2023/03/25 01:49:38;;;;;;;0.40;0.40;;;;;;;6.54;100.00;99264.00;5033830;28;20037;-84
2023/03/25 01:52:17;;;;;;;0.50;0.50;;;;;;;6.55;100.00;99257.63;5017708;28;20052;-85
2023/03/25 01:54:44;;;;;;;0.43;0.43;;;;;;;6.63;100.00;99262.88;5000198;28;20444;-87
2023/03/25 01:57:12;;;;;;;0.40;0.40;;;;;;;6.76;100.00;99263.03;5033610;28;20187;-86
2023/03/25 01:59:38;;;;;;;0.40;0.40;;;;;;;6.85;100.00;99255.72;4984923;28;20037;-81
2023/03/25 02:02:07;;;;;;;0.40;0.40;;;;;;;6.97;100.00;99258.75;5000669;28;20044;-85
2023/03/25 02:04:43;;;;;;;0.40;0.40;;;;;;;7.12;100.00;99280.06;5017239;28;20029;-85
2023/03/25 02:07:09;;;;;;;0.40;0.40;;;;;;;7.16;100.00;99276.00;5001122;28;20056;-86
2023/03/25 02:09:36;;;;;;;0.40;0.40;;;;;;;7.17;100.00;99282.97;5033475;28;20365;-86
2023/03/25 02:12:01;;;;;;;0.40;0.40;;;;;;;7.18;100.00;99274.78;5016315;28;20044;-83
2023/03/25 02:14:30;;;;;;;0.40;0.40;;;;;;;7.27;100.00;99272.81;5034682;28;20025;-84
2023/03/25 02:17:08;;;;;;;0.50;0.50;;;;;;;7.33;100.00;99292.59;5000505;28;20049;-84
2023/03/25 02:19:55;;;;;;;0.50;0.50;;;;;;;7.44;100.00;99300.97;5016889;28;20558;-85
2023/03/25 02:23:09;;;;;;;0.50;0.50;;;;;;;7.47;100.00;99305.94;5066877;28;20037;-84
2023/03/25 02:26:16;;;;;;;0.40;0.40;;;;;;;7.42;100.00;99313.69;5014087;28;20034;-86
2023/03/25 02:28:51;;;;;;;0.40;0.40;;;;;;;7.31;100.00;99314.19;5016173;28;20069;-86
2023/03/25 02:31:35;;;;;;;0.45;0.45;;;;;;;7.24;100.00;99313.28;5016311;28;20123;-85
2023/03/25 02:34:19;;;;;;;0.40;0.40;;;;;;;7.24;100.00;99314.13;5033139;28;20055;-86
2023/03/25 02:36:56;;;;;;;0.80;0.43;;;;;;;7.19;100.00;99321.06;5016565;28;20033;-81
2023/03/25 02:39:22;;;;;;;0.50;0.50;;;;;;;7.16;100.00;99332.13;5016439;28;20041;-85
2023/03/25 02:41:57;;;;;;;0.40;0.40;;;;;;;7.20;100.00;99334.25;5034345;28;20037;-85
2023/03/25 02:44:34;;;;;;;0.40;0.40;;;;;;;7.14;100.00;99326.13;4984156;28;20044;-86
2023/03/25 02:47:03;;;;;;;0.40;0.40;;;;;;;7.15;100.00;99333.16;5000473;28;20361;-84
2023/03/25 02:49:36;;;;;;;0.50;0.50;;;;;;;7.22;100.00;99336.72;5003532;28;20029;-84
2023/03/25 02:52:16;;;;;;;0.50;0.50;;;;;;;7.33;100.00;99346.94;5003799;28;20124;-84
2023/03/25 02:54:44;;;;;;;0.50;0.50;;;;;;;7.39;100.00;99364.06;4999936;28;20056;-84
2023/03/25 02:57:12;;;;;;;0.60;0.60;;;;;;;7.41;100.00;99359.31;5016011;28;20033;-83
2023/03/25 02:59:37;;;;;;;0.40;0.40;;;;;;;7.41;100.00;99356.66;4999811;28;20186;-86
2023/03/25 03:02:09;;;;;;;0.50;0.50;;;;;;;7.46;100.00;99371.13;5016322;28;20148;-86
2023/03/25 03:04:49;;;;;;;0.40;0.40;;;;;;;7.39;100.00;99369.41;4999216;28;20041;-82
2023/03/25 03:07:31;;;;;;;0.68;0.68;;;;;;;7.38;100.00;99381.09;5031885;28;20030;-85
2023/03/25 03:10:21;;;;;;;1.15;0.50;;;;;;;7.43;100.00;99374.16;4984774;28;20116;-85
2023/03/25 03:13:24;;;;;;;0.40;0.40;;;;;;;7.44;100.00;99386.53;4997552;28;20033;-86
2023/03/25 03:16:16;;;;;;;1.52;0.68;;;;;;;7.38;100.00;99391.81;5000050;28;20121;-88
2023/03/25 03:19:33;;;;;;;0.50;0.50;;;;;;;7.32;100.00;99380.03;5015840;28;20029;-85
2023/03/25 03:22:20;;;;;;;1.58;0.57;;;;;;;7.27;100.00;99403.81;5032200;28;20104;-87
2023/03/25 03:24:46;;;;;;;0.50;0.50;;;;;;;7.17;100.00;99389.91;5033532;28;20443;-85
2023/03/25 03:27:22;;;;;;;1.65;0.50;;;;;;;7.04;100.00;99399.44;5031389;28;20030;-85
2023/03/25 03:30:21;;;;;;;0.40;0.40;;;;;;;6.81;100.00;99399.53;5000502;28;20179;-84
2023/03/25 03:32:53;;;;;;;0.40;0.40;;;;;;;6.56;100.00;99393.66;4999111;28;20116;-84
2023/03/25 03:35:27;;;;;;;0.47;0.47;;;;;;;6.43;100.00;99403.28;5000000;28;20033;-87
2023/03/25 03:37:59;;;;;;;0.40;0.40;;;;;;;6.39;100.00;99408.19;4999966;28;20389;-85
2023/03/25 03:40:27;;;;;;;0.40;0.40;;;;;;;6.35;100.00;99418.41;4999264;28;20044;-87
2023/03/25 03:43:00;;;;;;;0.40;0.40;;;;;;;6.36;100.00;99409.38;4984328;28;20184;-86
2023/03/25 03:45:37;;;;;;;0.45;0.45;;;;;;;6.40;100.00;99409.81;5031636;28;20063;-82
2023/03/25 03:48:11;;;;;;;0.40;0.40;;;;;;;6.47;100.00;99416.09;4999387;28;20036;-83
2023/03/25 03:50:40;;;;;;;0.50;0.50;;;;;;;6.54;100.00;99405.53;5016519;28;20041;-86
2023/03/25 03:53:07;;;;;;;0.50;0.50;;;;;;;6.60;100.00;99404.78;4998681;28;20029;-87
2023/03/25 03:55:44;;;;;;;0.40;0.40;;;;;;;6.53;100.00;99398.50;4999562;28;20095;-85
2023/03/25 03:58:27;;;;;;;1.10;0.50;;;;;;;6.48;100.00;99406.25;5015869;28;20694;-85
2023/03/25 04:01:11;;;;;;;0.40;0.40;;;;;;;6.42;100.00;99415.81;5014858;28;20033;-85
2023/03/25 04:03:49;;;;;;;0.50;0.50;;;;;;;6.34;100.00;99419.38;5032045;28;20545;-86
2023/03/25 04:06:21;;;;;;;0.50;0.50;;;;;;;6.35;100.00;99418.41;4999045;28;20045;-82
2023/03/25 04:08:57;;;;;;;0.40;0.40;;;;;;;6.43;100.00;99433.50;5031643;28;20380;-84
2023/03/25 04:11:27;;;;;;;0.40;0.40;;;;;;;6.52;100.00;99432.41;5001184;28;20044;-85
2023/03/25 04:13:53;;;;;;;0.40;0.40;;;;;;;6.60;100.00;99443.00;4982465;28;20539;-83
2023/03/25 04:16:19;;;;;;;1.63;0.60;;;;;;;6.61;100.00;99441.16;4999663;28;20042;-87
2023/03/25 04:18:46;;;;;;;0.50;0.50;;;;;;;6.53;100.00;99442.06;5033525;28;20119;-85
2023/03/25 04:21:14;;;;;;;0.40;0.40;;;;;;;6.49;100.00;99455.97;5035204;28;20029;-84
2023/03/25 04:23:40;;;;;;;0.40;0.40;;;;;;;6.35;100.00;99444.25;5019899;28;20033;-85
2023/03/25 04:26:06;;;;;;;0.40;0.40;;;;;;;6.26;100.00;99456.00;5037166;28;20029;-84
2023/03/25 04:28:32;;;;;;;0.40;0.40;;;;;;;6.10;100.00;99452.47;5034558;28;20531;-86
2023/03/25 04:30:59;;;;;;;0.40;0.40;;;;;;;6.14;100.00;99459.13;5035812;28;20481;-84
2023/03/25 04:33:25;;;;;;;0.40;0.40;;;;;;;6.14;100.00;99448.44;5018834;28;20037;-83
2023/03/25 04:35:51;;;;;;;0.40;0.40;;;;;;;6.12;100.00;99471.81;5002501;28;20029;-85
2023/03/25 04:38:18;;;;;;;0.40;0.40;;;;;;;6.09;100.00;99477.50;5018893;28;20064;-84
2023/03/25 04:40:45;;;;;;;0.40;0.40;;;;;;;6.13;100.00;99475.28;5018440;28;20056;-87
2023/03/25 04:43:15;;;;;;;0.40;0.40;;;;;;;6.16;100.00;99478.44;5035140;28;20040;-87
2023/03/25 04:45:53;;;;;;;0.40;0.40;;;;;;;6.19;100.00;99481.75;5018981;28;20116;-86
2023/03/25 04:48:33;;;;;;;0.40;0.40;;;;;;;6.16;100.00;99490.94;5019236;28;20037;-86
2023/03/25 04:51:00;;;;;;;0.40;0.40;;;;;;;6.13;100.00;99486.78;5002429;28;20037;-87
2023/03/25 04:53:26;;;;;;;0.40;0.40;;;;;;;6.16;100.00;99497.09;5018875;28;20068;-86
2023/03/25 04:55:53;;;;;;;0.43;0.43;;;;;;;6.10;100.00;99497.00;5017633;28;20030;-87
2023/03/25 04:58:18;;;;;;;0.40;0.40;;;;;;;5.98;100.00;99493.94;5002701;28;20108;-86
2023/03/25 05:00:46;;;;;;;0.40;0.40;;;;;;;5.98;100.00;99503.75;5036623;28;20453;-87
2023/03/25 05:03:11;;;;;;;0.40;0.40;;;;;;;5.90;100.00;99509.94;5006385;28;20037;-83
2023/03/25 05:05:37;;;;;;;0.47;0.47;;;;;;;5.96;100.00;99508.47;5021406;28;20035;-87
2023/03/25 05:08:03;;;;;;;0.40;0.40;;;;;;;5.94;100.00;99511.28;5034627;28;20498;-85
2023/03/25 05:10:29;;;;;;;0.40;0.40;;;;;;;5.84;100.00;99511.47;5034245;28;20057;-86
2023/03/25 05:12:59;;;;;;;0.40;0.40;;;;;;;5.80;100.00;99525.34;5034558;28;20127;-85
2023/03/25 05:15:25;;;;;;;0.40;0.40;;;;;;;5.70;100.00;99523.72;5002188;28;20037;-85
2023/03/25 05:17:51;;;;;;;0.40;0.40;;;;;;;5.64;100.00;99526.28;5035485;28;20037;-87
2023/03/25 05:20:16;;;;;;;0.40;0.40;;;;;;;5.64;100.00;99535.09;5035837;28;20025;-84
2023/03/25 05:22:44;;;;;;;0.40;0.40;;;;;;;5.70;100.00;99545.06;5035332;28;20053;-83
2023/03/25 05:25:10;;;;;;;0.40;0.40;;;;;;;5.76;100.00;99535.53;5033843;28;20033;-85
2023/03/25 05:27:37;;;;;;;0.50;0.50;;;;;;;5.89;100.00;99557.13;5035811;28;20034;-84
2023/03/25 05:30:05;;;;;;;0.40;0.40;;;;;;;5.98;100.00;99549.09;5032607;28;20469;-87
2023/03/25 05:32:33;;;;;;;0.40;0.40;;;;;;;5.99;100.00;99556.13;5001452;28;20052;-86
2023/03/25 05:35:00;;;;;;;0.40;0.40;;;;;;;5.95;100.00;99555.63;5034414;28;20033;-84
2023/03/25 05:37:25;;;;;;;0.40;0.40;;;;;;;5.97;100.00;99544.78;5033662;28;20060;-85
2023/03/25 05:39:51;;;;;;;0.32;0.32;;;;;;;6.05;100.00;99560.75;5034028;28;20061;-86
2023/03/25 05:42:21;;;;;;;0.40;0.40;;;;;;;6.06;100.00;99562.41;5034514;28;20056;-85
2023/03/25 05:44:51;;;;;;;0.50;0.50;;;;;;;6.11;100.00;99571.56;5002141;28;20380;-88
2023/03/25 05:47:20;;;;;;;0.40;0.40;;;;;;;6.07;100.00;99564.91;4985101;28;20033;-86
2023/03/25 05:49:55;;;;;;;0.40;0.40;;;;;;;6.04;100.00;99581.28;5017666;28;20451;-85
2023/03/25 05:52:24;;;;;;;0.40;0.40;;;;;;;6.01;100.00;99589.63;5017445;28;20038;-85
2023/03/25 05:54:59;;;;;;;0.40;0.40;;;;;;;5.86;100.00;99589.50;5004381;28;20096;-85
2023/03/25 05:57:30;;;;;;;0.40;0.40;;;;;;;5.83;100.00;99584.50;5035101;28;20541;-87
2023/03/25 05:59:57;;;;;;;0.40;0.40;;;;;;;5.64;100.00;99539.59;5033121;28;20079;-85
2023/03/25 06:02:26;;;;;;;0.40;0.40;;;;;;;5.76;100.00;99572.88;5000746;28;20041;-84
2023/03/25 06:04:51;;;;;;;0.40;0.40;;;;;;;5.67;100.00;99579.25;5001165;28;20041;-86
2023/03/25 06:07:21;;;;;;;0.40;0.40;;;;;;;5.56;100.00;99583.13;5034763;28;20084;-84
2023/03/25 06:09:47;;;;;;;0.50;0.50;;;;;;;5.43;100.00;99577.50;5033625;28;20025;-86
2023/03/25 06:12:14;;;;;;;0.47;0.47;;;;;;;5.32;100.00;99580.53;5001276;28;20061;-87
2023/03/25 06:14:44;;;;;;;0.40;0.40;;;;;;;5.25;100.00;99589.22;4999939;28;20029;-85
2023/03/25 06:17:14;;;;;;;0.40;0.40;;;;;;;5.19;100.00;99581.06;5017946;28;20087;-84
2023/03/25 06:19:41;;;;;;;0.40;0.40;;;;;;;5.17;100.00;99588.41;5016764;28;20087;-87
2023/03/25 06:22:08;;;;;;;0.40;0.40;;;;;;;5.00;100.00;99572.44;5034604;28;20415;-84
2023/03/25 06:24:38;;;;;;;0.50;0.50;;;;;;;4.97;100.00;99599.41;5033046;28;20578;-82
2023/03/25 06:27:06;;;;;;;0.40;0.40;;;;;;;5.02;100.00;99601.56;5000722;28;20037;-86
2023/03/25 06:29:33;;;;;;;0.40;0.40;;;;;;;4.98;100.00;99611.75;5033585;28;20140;-85
2023/03/25 06:31:59;;;;;;;0.50;0.50;;;;;;;4.85;100.00;99600.75;5000166;28;20092;-85
2023/03/25 06:34:25;;;;;;;0.40;0.40;;;;;;;4.72;100.00;99601.25;5000424;28;20424;-85
2023/03/25 06:36:52;;;;;;;0.50;0.50;;;;;;;4.64;100.00;99606.59;5017072;28;20112;-85
2023/03/25 06:39:20;;;;;;;0.40;0.40;;;;;;;4.56;100.00;99617.22;5016303;28;20490;-84
2023/03/25 06:41:46;;;;;;;0.40;0.40;;;;;;;4.59;100.00;99622.22;4999958;28;20032;-85
2023/03/25 06:44:12;;;;;;;0.40;0.40;;;;;;;4.63;100.00;99619.06;5016756;28;20034;-85
2023/03/25 06:46:37;;;;;;;0.50;0.50;;;;;;;4.81;100.00;99626.03;5033185;28;20030;-85
2023/03/25 06:49:03;;;;;;;0.40;0.40;;;;;;;4.89;100.00;99627.88;5016110;28;20041;-84
2023/03/25 06:51:29;;;;;;;0.40;0.40;;;;;;;4.97;100.00;99631.38;5016491;28;20102;-87
2023/03/25 06:53:54;;;;;;;0.45;0.45;;;;;;;5.15;100.00;99636.53;5033361;28;20476;-86
2023/03/25 06:56:20;;;;;;;0.40;0.40;;;;;;;5.14;100.00;99629.53;5034066;28;20073;-85
2023/03/25 06:58:46;;;;;;;0.40;0.40;;;;;;;5.10;100.00;99633.53;5032369;28;20428;-85
2023/03/25 07:01:11;;;;;;;0.50;0.50;;;;;;;5.03;100.00;99641.38;5032494;28;20056;-84
2023/03/25 07:03:37;;;;;;;0.43;0.43;;;;;;;5.20;100.00;99644.84;5032199;28;20032;-87
2023/03/25 07:06:05;;;;;;;0.40;0.40;;;;;;;5.29;100.00;99651.84;5016044;28;20104;-86
2023/03/25 07:08:31;;;;;;;0.43;0.43;;;;;;;5.28;100.00;99638.69;5016103;28;20037;-85
2023/03/25 07:11:04;;;;;;;0.50;0.50;;;;;;;5.29;100.00;99641.19;4999924;28;20033;-87
2023/03/25 07:13:34;;;;;;;0.40;0.40;;;;;;;5.46;100.00;99646.47;5017011;28;20036;-87
2023/03/25 07:16:00;;;;;;;0.50;0.50;;;;;;;5.82;100.00;99652.22;5032573;28;20120;-84
2023/03/25 07:18:26;;;;;;;0.40;0.40;;;;;;;6.32;100.00;99647.50;5032134;28;20029;-88
2023/03/25 07:21:02;;;;;;;0.50;0.50;;;;;;;6.78;100.00;99655.56;4999882;28;20091;-85
2023/03/25 07:23:27;;;;;;;0.50;0.50;;;;;;;7.34;100.00;99650.75;5000810;28;20044;-85
2023/03/25 07:25:54;;;;;;;0.40;0.40;;;;;;;7.57;100.00;99664.06;5033006;28;20037;-85
2023/03/25 07:28:23;;;;;;;0.50;0.50;;;;;;;7.84;100.00;99670.63;5033470;28;20452;-85
2023/03/25 07:30:52;;;;;;;0.50;0.50;;;;;;;7.72;100.00;99658.69;5016991;28;20048;-84
2023/03/25 07:33:17;;;;;;;0.40;0.40;;;;;;;7.59;100.00;99661.19;5035149;28;20472;-84
2023/03/25 07:36:01;;;;;;;0.40;0.40;;;;;;;7.55;100.00;99662.56;5017335;28;20025;-86
2023/03/25 07:38:27;;;;;;;0.50;0.50;;;;;;;7.56;100.00;99673.06;4999742;28;20384;-85
2023/03/25 07:40:53;;;;;;;0.43;0.43;;;;;;;7.57;100.00;99679.25;4999893;28;20037;-86
2023/03/25 07:43:18;;;;;;;0.40;0.40;;;;;;;7.47;100.00;99680.38;5015857;28;20465;-88
2023/03/25 07:45:44;;;;;;;0.50;0.50;;;;;;;7.34;100.00;99664.09;4999462;28;20033;-84
2023/03/25 07:51:10;;;;;;;0.40;0.40;;;;;;;6.94;100.00;99668.81;5005147;28;20094;-83
2023/03/25 07:53:37;;;;;;;0.35;0.35;;;;;;;6.83;100.00;99687.94;5033317;28;20034;-88
2023/03/25 07:56:05;;;;;;;0.40;0.40;;;;;;;6.58;100.00;99682.72;5036901;28;20032;-83
2023/03/25 07:58:31;;;;;;;0.40;0.40;;;;;;;6.41;100.00;99689.19;4987071;28;20396;-88
2023/03/25 08:00:56;;;;;;;0.60;0.60;;;;;;;7.03;100.00;99683.75;5035943;28;20037;-82
2023/03/25 08:03:22;;;;;;;0.60;0.60;;;;;;;9.29;100.00;99675.13;5035968;28;20030;-83
2023/03/25 08:05:48;;;;;;;0.60;0.60;;;;;;;10.43;100.00;99688.22;5035701;28;20029;-87
2023/03/25 08:08:14;;;;;;;0.70;0.70;;;;;;;11.96;100.00;99688.34;5035760;28;20025;-84
2023/03/25 08:10:49;;;;;;;0.60;0.60;;;;;;;12.98;100.00;99675.03;5019452;28;20553;-86
2023/03/25 08:13:15;;;;;;;0.60;0.60;;;;;;;13.67;100.00;99675.13;5003962;28;20116;-84
2023/03/25 08:15:40;;;;;;;0.60;0.60;;;;;;;14.19;96.76;99683.72;5021584;28;20072;-82
2023/03/25 08:18:06;;;;;;;0.60;0.60;;;;;;;14.73;95.02;99690.13;5037425;28;20044;-83
2023/03/25 08:20:33;;;;;;;0.60;0.60;;;;;;;15.10;93.49;99690.03;5019498;28;20033;-82
2023/03/25 08:22:59;;;;;;;0.70;0.70;;;;;;;14.78;94.52;99679.44;5002618;28;20060;-84
2023/03/25 08:25:24;;;;;;;0.70;0.70;;;;;;;15.17;94.41;99688.88;5002822;28;20383;-83
2023/03/25 08:27:50;;;;;;;0.80;0.80;;;;;;;15.90;89.06;99704.97;5036563;28;20067;-87
2023/03/25 08:30:16;;;;;;;0.40;0.40;;;;;;;14.49;94.90;99697.28;5036315;28;20444;-83
2023/03/25 08:32:44;;;;;;;0.40;0.40;;;;;;;12.68;100.00;99707.16;5002887;28;20041;-84
2023/03/25 08:35:11;;;;;;;0.50;0.50;;;;;;;12.66;100.00;99699.28;5035551;28;20168;-84
2023/03/25 08:37:37;;;;;;;0.50;0.50;;;;;;;12.28;100.00;99704.66;5002769;28;20104;-83
2023/03/25 08:40:10;;;;;;;0.68;0.68;;;;;;;13.64;100.00;99712.31;5035916;28;20464;-86
2023/03/25 08:42:39;;;;;;;0.60;0.60;;;;;;;14.91;95.90;99706.31;5003073;28;20423;-84
2023/03/25 08:45:08;;;;;;;0.63;0.63;;;;;;;15.80;92.17;99709.13;5002649;28;20099;-83
2023/03/25 08:47:34;;;;;;;0.68;0.68;;;;;;;16.37;90.19;99713.06;5003238;28;20490;-84
2023/03/25 08:49:59;;;;;;;0.60;0.60;;;;;;;16.77;86.40;99699.50;5039940;28;20029;-81
2023/03/25 08:52:25;;;;;;;0.70;0.70;;;;;;;17.13;84.46;99716.47;5036736;28;20035;-82
2023/03/25 08:54:51;;;;;;;0.70;0.70;;;;;;;17.29;83.86;99717.56;5018814;28;20026;-83
2023/03/25 08:57:16;;;;;;;0.60;0.60;;;;;;;17.45;83.04;99710.47;5017599;28;20052;-83
2023/03/25 08:59:43;;;;;;;0.70;0.70;;;;;;;17.43;83.22;99705.28;5018673;28;20051;-84
2023/03/25 09:02:11;;;;;;;0.60;0.60;;;;;;;17.67;83.21;99716.00;5035129;28;20030;-83
2023/03/25 09:04:37;;;;;;;0.70;0.70;;;;;;;17.84;82.71;99722.28;5017418;28;20065;-84
2023/03/25 09:07:04;;;;;;;0.70;0.70;;;;;;;17.96;81.33;99723.00;5018620;28;20053;-85
2023/03/25 09:09:31;;;;;;;0.60;0.60;;;;;;;16.83;87.45;99728.41;5018707;28;20123;-84
2023/03/25 09:11:56;;;;;;;0.82;0.82;;;;;;;16.74;88.81;99737.13;5018221;28;20480;-83
2023/03/25 09:14:22;;;;;;;0.80;0.80;;;;;;;17.63;88.68;99736.59;5035711;28;20028;-83
2023/03/25 09:16:47;;;;;;;0.88;0.88;;;;;;;19.02;80.46;99731.97;5035461;28;20034;-83
2023/03/25 09:19:13;;;;;;;0.60;0.60;;;;;;;18.98;82.26;99717.22;5001792;28;20052;-82
2023/03/25 09:21:39;;;;;;;0.50;0.50;;;;;;;19.11;82.39;99735.88;5034325;28;20033;-84
2023/03/25 09:24:06;;;;;;;3.08;1.10;;;;;;;17.44;88.41;99744.16;5018052;28;20030;-80
2023/03/25 09:26:33;;;;;;;0.95;0.52;;;;;;;15.79;94.42;99734.56;5034165;28;20082;-80
2023/03/25 09:28:59;;;;;;;2.50;0.70;;;;;;;14.72;100.00;99748.84;5034439;28;20167;-80
2023/03/25 09:31:25;;;;;;;3.35;1.05;;;;;;;13.72;100.00;99740.13;5018162;28;20369;-80
2023/03/25 09:33:51;;;;;;;6.22;1.63;;;;;;;16.56;100.00;99740.84;5033453;28;20472;-80
2023/03/25 09:36:17;;;;;;;1.85;0.88;;;;;;;15.80;100.00;99743.53;5017969;28;20132;-81
2023/03/25 09:38:42;;;;;;;1.73;0.80;;;;;;;16.22;97.88;99736.09;5034225;28;20025;-80
2023/03/25 09:41:40;;;;;;;1.60;0.95;;;;;;;14.96;99.33;99724.59;5017576;28;20033;-80
2023/03/25 09:44:52;;;;;;;7.60;1.08;;;;;;;15.29;99.87;99748.47;5034108;28;20040;-81
2023/03/25 09:47:19;;;;;;;4.15;1.17;;;;;;;16.79;89.69;99745.41;4987475;28;20037;-80
2023/03/25 09:49:52;;;;;;;4.57;1.35;;;;;;;17.34;88.76;99739.38;5033674;28;20392;-81
2023/03/25 09:52:42;;;;;;;2.97;1.45;;;;;;;19.06;80.55;99733.09;5017602;28;20088;-80
2023/03/25 09:55:10;;;;;;;2.63;1.33;;;;;;;20.08;76.27;99739.41;5017630;28;20566;-80
2023/03/25 09:57:49;;;;;;;2.28;1.35;;;;;;;20.47;74.02;99741.00;5032859;28;20021;-80
2023/03/25 10:00:18;;;;;;;3.38;1.25;;;;;;;20.96;71.89;99735.22;5033795;28;20065;-81
2023/03/25 10:03:06;;;;;;;5.38;0.98;;;;;;;20.83;71.54;99744.75;5016914;28;20032;-82
2023/03/25 10:05:48;;;;;;;5.20;1.67;;;;;;;20.21;72.50;99744.41;5033624;28;20072;-81
2023/03/25 10:08:59;;;;;;;5.43;1.50;;;;;;;21.24;71.40;99734.69;5017355;28;20076;-80
2023/03/25 10:11:48;;;;;;;3.33;0.90;;;;;;;19.00;77.58;99739.56;5016436;28;20507;-80
2023/03/25 10:14:32;;;;;;;5.85;1.60;;;;;;;18.98;81.33;99728.13;5016063;28;20069;-79
2023/03/25 10:17:03;;;;;;;2.83;1.02;;;;;;;19.69;75.32;99730.72;4999448;28;20452;-77
2023/03/25 10:19:50;;;;;;;5.10;2.00;;;;;;;17.25;87.96;99732.69;5017040;28;20033;-78
2023/03/25 10:22:21;;;;;;;7.32;1.20;;;;;;;16.07;93.26;99741.16;5032833;28;20025;-77
2023/03/25 10:24:51;;;;;;;2.17;0.98;;;;;;;15.33;97.18;99725.28;5000403;28;20388;-78
2023/03/25 10:27:23;;;;;;;5.65;1.55;;;;;;;19.31;81.86;99737.97;5000054;28;20082;-77
2023/03/25 10:29:57;;;;;;;5.07;1.75;;;;;;;19.49;82.86;99737.59;5033291;28;20036;-79
2023/03/25 10:32:49;;;;;;;4.57;0.82;;;;;;;18.06;80.74;99726.94;5016519;28;20482;-76
2023/03/25 10:35:47;;;;;;;3.85;1.27;;;;;;;16.39;90.15;99748.91;5000312;28;20041;-75
2023/03/25 10:38:20;;;;;;;5.80;1.48;;;;;;;17.87;85.17;99748.97;5013844;28;20606;-77
2023/03/25 10:40:51;;;;;;;7.45;1.33;;;;;;;18.75;83.27;99748.28;5016134;28;20030;-77
2023/03/25 10:43:21;;;;;;;5.15;1.50;;;;;;;18.78;79.50;99720.53;5001218;28;20488;-76
2023/03/25 10:45:47;;;;;;;6.88;1.60;;;;;;;19.48;72.17;99744.13;5015886;28;20025;-76
2023/03/25 10:48:31;;;;;;;4.95;2.50;;;;;;;19.29;75.29;99749.16;5032162;28;20025;-76
2023/03/25 10:51:09;;;;;;;4.18;1.20;;;;;;;21.55;64.34;99733.94;5015925;28;20048;-76
2023/03/25 10:53:35;;;;;;;7.18;1.27;;;;;;;21.78;64.22;99741.59;5015999;28;20079;-76
2023/03/25 10:56:07;;;;;;;2.22;0.70;;;;;;;21.15;58.64;99747.28;5032684;28;20054;-74
2023/03/25 10:58:36;;;;;;;3.85;1.70;;;;;;;21.99;57.22;99755.25;5032432;28;20087;-74
2023/03/25 11:01:12;;;;;;;3.60;0.90;;;;;;;20.05;56.08;99750.88;5016113;28;20033;-78
2023/03/25 11:03:40;;;;;;;3.92;1.00;;;;;;;17.45;63.76;99727.59;5016123;28;20582;-78
2023/03/25 11:06:06;;;;;;;3.15;0.75;;;;;;;15.85;72.59;99764.50;5016242;28;20052;-80
2023/03/25 11:08:32;;;;;;;3.22;0.82;;;;;;;14.81;79.24;99754.75;5032317;28;20036;-80
2023/03/25 11:10:59;;;;;;;4.25;0.90;;;;;;;14.12;85.01;99761.34;5031759;28;20548;-81
2023/03/25 11:13:28;;;;;;;3.97;1.10;;;;;;;13.85;87.82;99772.41;5031971;28;20373;-81
2023/03/25 11:15:57;;;;;;;3.70;0.90;;;;;;;13.63;87.62;99766.59;5015686;28;20057;-82
2023/03/25 11:18:39;;;;;;;4.13;0.80;;;;;;;13.44;85.65;99759.44;5015727;28;20029;-81
2023/03/25 11:21:14;;;;;;;3.40;1.20;;;;;;;13.38;84.14;99763.84;5016065;28;20029;-81
2023/03/25 11:23:45;;;;;;;4.22;1.10;;;;;;;13.43;82.47;99753.22;5031799;28;20152;-81
2023/03/25 11:26:25;;;;;;;1.55;0.70;;;;;;;13.34;84.98;99754.53;5016347;28;20037;-80
2023/03/25 11:29:00;;;;;;;2.33;0.60;;;;;;;13.01;84.89;99755.53;5031599;28;20026;-80
2023/03/25 11:31:28;;;;;;;2.03;0.90;;;;;;;12.93;85.59;99758.47;5032098;28;20030;-84
2023/03/25 11:34:12;;;;;;;3.35;1.10;;;;;;;12.92;83.91;99762.25;5032039;28;20080;-81
2023/03/25 11:36:46;;;;;;;3.42;1.15;;;;;;;14.15;79.97;99752.78;5031784;28;20491;-80
2023/03/25 11:39:17;;;;;;;1.90;0.80;;;;;;;16.95;65.48;99755.50;5032479;28;20037;-80
2023/03/25 11:41:44;;;;;;;3.42;1.10;;;;;;;16.35;68.15;99758.56;5015286;28;20034;-78
2023/03/25 11:44:29;;;;;;;1.45;0.80;;;;;;;14.85;69.71;99753.25;5031594;28;20034;-78
2023/03/25 11:47:04;;;;;;;3.83;1.33;;;;;;;16.64;65.30;99751.31;4999585;28;20044;-78
2023/03/25 11:49:34;;;;;;;1.48;1.10;;;;;;;19.94;54.53;99749.16;5014909;28;20029;-80
2023/03/25 11:52:04;;;;;;;3.47;1.20;;;;;;;21.94;47.29;99751.44;5031120;28;20052;-86
2023/03/25 11:54:34;;;;;;;3.28;1.10;;;;;;;23.43;41.54;99754.41;5031881;28;20464;-84